sensor_id;sensor_type;location;lat;lon;timestamp;pressure;altitude;pressure_sealevel;temperature
12918;BMP180;6526;54.312;13.092;2023-07-13T00:00:25;101557.00;;;22.40
12918;BMP180;6526;54.312;13.092;2023-07-13T00:02:51;101560.00;;;22.40
12918;BMP180;6526;54.312;13.092;2023-07-13T00:05:22;101560.00;;;22.30
12918;BMP180;6526;54.312;13.092;2023-07-13T00:07:51;101563.00;;;22.40
12918;BMP180;6526;54.312;13.092;2023-07-13T00:10:18;101559.00;;;22.30
12918;BMP180;6526;54.312;13.092;2023-07-13T00:12:44;101554.00;;;22.30
12918;BMP180;6526;54.312;13.092;2023-07-13T00:15:20;101556.00;;;22.40
12918;BMP180;6526;54.312;13.092;2023-07-13T00:17:49;101554.00;;;22.40
12918;BMP180;6526;54.312;13.092;2023-07-13T00:20:16;101549.00;;;22.40
12918;BMP180;6526;54.312;13.092;2023-07-13T00:22:42;101551.00;;;22.40
12918;BMP180;6526;54.312;13.092;2023-07-13T00:25:11;101552.00;;;22.40
12918;BMP180;6526;54.312;13.092;2023-07-13T00:27:37;101552.00;;;22.40
12918;BMP180;6526;54.312;13.092;2023-07-13T00:30:04;101552.00;;;22.40
12918;BMP180;6526;54.312;13.092;2023-07-13T00:32:31;101558.00;;;22.30
12918;BMP180;6526;54.312;13.092;2023-07-13T00:34:57;101564.00;;;22.30
12918;BMP180;6526;54.312;13.092;2023-07-13T00:37:25;101570.00;;;22.30
12918;BMP180;6526;54.312;13.092;2023-07-13T00:39:51;101571.00;;;22.30
12918;BMP180;6526;54.312;13.092;2023-07-13T00:42:17;101565.00;;;22.30
12918;BMP180;6526;54.312;13.092;2023-07-13T00:45:05;101575.00;;;22.20
12918;BMP180;6526;54.312;13.092;2023-07-13T00:47:31;101576.00;;;22.20
12918;BMP180;6526;54.312;13.092;2023-07-13T00:49:58;101572.00;;;22.10
12918;BMP180;6526;54.312;13.092;2023-07-13T00:52:24;101573.00;;;22.10
12918;BMP180;6526;54.312;13.092;2023-07-13T00:54:50;101578.00;;;22.10
12918;BMP180;6526;54.312;13.092;2023-07-13T00:57:19;101576.00;;;22.00
12918;BMP180;6526;54.312;13.092;2023-07-13T00:59:52;101571.00;;;22.00
12918;BMP180;6526;54.312;13.092;2023-07-13T01:02:19;101565.00;;;22.00
12918;BMP180;6526;54.312;13.092;2023-07-13T01:04:45;101566.00;;;22.00
12918;BMP180;6526;54.312;13.092;2023-07-13T01:07:12;101559.00;;;22.00
12918;BMP180;6526;54.312;13.092;2023-07-13T01:09:39;101556.00;;;22.00
12918;BMP180;6526;54.312;13.092;2023-07-13T01:12:05;101565.00;;;22.00
12918;BMP180;6526;54.312;13.092;2023-07-13T01:14:31;101568.00;;;22.00
12918;BMP180;6526;54.312;13.092;2023-07-13T01:16:57;101560.00;;;22.00
12918;BMP180;6526;54.312;13.092;2023-07-13T01:21:55;101559.00;;;22.00
12918;BMP180;6526;54.312;13.092;2023-07-13T01:24:21;101563.00;;;22.00
12918;BMP180;6526;54.312;13.092;2023-07-13T01:26:47;101565.00;;;21.90
12918;BMP180;6526;54.312;13.092;2023-07-13T01:29:13;101565.00;;;22.00
12918;BMP180;6526;54.312;13.092;2023-07-13T01:31:39;101561.00;;;21.90
12918;BMP180;6526;54.312;13.092;2023-07-13T01:34:05;101571.00;;;21.80
12918;BMP180;6526;54.312;13.092;2023-07-13T01:36:31;101570.00;;;21.80
12918;BMP180;6526;54.312;13.092;2023-07-13T01:38:57;101569.00;;;21.80
12918;BMP180;6526;54.312;13.092;2023-07-13T01:41:23;101567.00;;;21.80
12918;BMP180;6526;54.312;13.092;2023-07-13T01:43:49;101560.00;;;21.80
12918;BMP180;6526;54.312;13.092;2023-07-13T01:46:15;101561.00;;;21.80
12918;BMP180;6526;54.312;13.092;2023-07-13T01:48:41;101570.00;;;21.80
12918;BMP180;6526;54.312;13.092;2023-07-13T01:51:07;101568.00;;;21.80
12918;BMP180;6526;54.312;13.092;2023-07-13T01:53:33;101571.00;;;21.80
12918;BMP180;6526;54.312;13.092;2023-07-13T01:55:59;101563.00;;;21.80
12918;BMP180;6526;54.312;13.092;2023-07-13T01:58:25;101577.00;;;21.90
12918;BMP180;6526;54.312;13.092;2023-07-13T02:00:52;101578.00;;;21.90
12918;BMP180;6526;54.312;13.092;2023-07-13T02:03:18;101589.00;;;21.90
12918;BMP180;6526;54.312;13.092;2023-07-13T02:05:45;101586.00;;;21.80
12918;BMP180;6526;54.312;13.092;2023-07-13T02:08:12;101584.00;;;21.80
12918;BMP180;6526;54.312;13.092;2023-07-13T02:10:38;101591.00;;;21.80
12918;BMP180;6526;54.312;13.092;2023-07-13T02:13:06;101593.00;;;21.80
12918;BMP180;6526;54.312;13.092;2023-07-13T02:15:32;101583.00;;;21.70
12918;BMP180;6526;54.312;13.092;2023-07-13T02:17:58;101577.00;;;21.80
12918;BMP180;6526;54.312;13.092;2023-07-13T02:20:25;101584.00;;;21.80
12918;BMP180;6526;54.312;13.092;2023-07-13T02:22:52;101594.00;;;21.80
12918;BMP180;6526;54.312;13.092;2023-07-13T02:25:56;101584.00;;;21.80
12918;BMP180;6526;54.312;13.092;2023-07-13T02:28:22;101569.00;;;21.80
12918;BMP180;6526;54.312;13.092;2023-07-13T02:30:48;101595.00;;;21.80
12918;BMP180;6526;54.312;13.092;2023-07-13T02:33:14;101580.00;;;21.80
12918;BMP180;6526;54.312;13.092;2023-07-13T02:35:41;101579.00;;;21.70
12918;BMP180;6526;54.312;13.092;2023-07-13T02:38:07;101588.00;;;21.60
12918;BMP180;6526;54.312;13.092;2023-07-13T02:40:33;101572.00;;;21.60
12918;BMP180;6526;54.312;13.092;2023-07-13T02:43:01;101584.00;;;21.70
12918;BMP180;6526;54.312;13.092;2023-07-13T02:45:28;101586.00;;;21.70
12918;BMP180;6526;54.312;13.092;2023-07-13T02:47:54;101604.00;;;21.70
12918;BMP180;6526;54.312;13.092;2023-07-13T02:50:21;101591.00;;;21.60
12918;BMP180;6526;54.312;13.092;2023-07-13T02:52:47;101593.00;;;21.60
12918;BMP180;6526;54.312;13.092;2023-07-13T02:55:13;101595.00;;;21.50
12918;BMP180;6526;54.312;13.092;2023-07-13T02:57:39;101580.00;;;21.50
12918;BMP180;6526;54.312;13.092;2023-07-13T03:00:05;101587.00;;;21.50
12918;BMP180;6526;54.312;13.092;2023-07-13T03:02:32;101583.00;;;21.50
12918;BMP180;6526;54.312;13.092;2023-07-13T03:04:59;101592.00;;;21.50
12918;BMP180;6526;54.312;13.092;2023-07-13T03:07:25;101592.00;;;21.50
12918;BMP180;6526;54.312;13.092;2023-07-13T03:09:55;101595.00;;;21.50
12918;BMP180;6526;54.312;13.092;2023-07-13T03:12:22;101607.00;;;21.40
12918;BMP180;6526;54.312;13.092;2023-07-13T03:14:48;101598.00;;;21.40
12918;BMP180;6526;54.312;13.092;2023-07-13T03:17:14;101587.00;;;21.40
12918;BMP180;6526;54.312;13.092;2023-07-13T03:19:40;101597.00;;;21.40
12918;BMP180;6526;54.312;13.092;2023-07-13T03:22:06;101608.00;;;21.40
12918;BMP180;6526;54.312;13.092;2023-07-13T03:24:33;101616.00;;;21.50
12918;BMP180;6526;54.312;13.092;2023-07-13T03:27:01;101604.00;;;21.40
12918;BMP180;6526;54.312;13.092;2023-07-13T03:29:27;101620.00;;;21.40
12918;BMP180;6526;54.312;13.092;2023-07-13T03:31:53;101606.00;;;21.40
12918;BMP180;6526;54.312;13.092;2023-07-13T03:34:19;101617.00;;;21.30
12918;BMP180;6526;54.312;13.092;2023-07-13T03:36:45;101621.00;;;21.40
12918;BMP180;6526;54.312;13.092;2023-07-13T03:39:11;101619.00;;;21.40
12918;BMP180;6526;54.312;13.092;2023-07-13T03:41:38;101625.00;;;21.30
12918;BMP180;6526;54.312;13.092;2023-07-13T03:44:04;101625.00;;;21.30
12918;BMP180;6526;54.312;13.092;2023-07-13T03:46:30;101635.00;;;21.20
12918;BMP180;6526;54.312;13.092;2023-07-13T03:48:56;101624.00;;;21.20
12918;BMP180;6526;54.312;13.092;2023-07-13T03:51:23;101634.00;;;21.20
12918;BMP180;6526;54.312;13.092;2023-07-13T03:53:50;101634.00;;;21.20
12918;BMP180;6526;54.312;13.092;2023-07-13T03:56:17;101634.00;;;21.10
12918;BMP180;6526;54.312;13.092;2023-07-13T03:58:46;101639.00;;;21.10
12918;BMP180;6526;54.312;13.092;2023-07-13T04:01:13;101641.00;;;21.10
12918;BMP180;6526;54.312;13.092;2023-07-13T04:03:40;101637.00;;;21.10
12918;BMP180;6526;54.312;13.092;2023-07-13T04:06:08;101643.00;;;21.00
12918;BMP180;6526;54.312;13.092;2023-07-13T04:08:36;101641.00;;;21.00
12918;BMP180;6526;54.312;13.092;2023-07-13T04:11:03;101643.00;;;21.00
12918;BMP180;6526;54.312;13.092;2023-07-13T04:13:30;101640.00;;;21.00
12918;BMP180;6526;54.312;13.092;2023-07-13T04:15:56;101637.00;;;20.70
12918;BMP180;6526;54.312;13.092;2023-07-13T04:18:22;101632.00;;;20.90
12918;BMP180;6526;54.312;13.092;2023-07-13T04:20:49;101635.00;;;21.00
12918;BMP180;6526;54.312;13.092;2023-07-13T04:23:17;101627.00;;;20.90
12918;BMP180;6526;54.312;13.092;2023-07-13T04:25:47;101633.00;;;20.90
12918;BMP180;6526;54.312;13.092;2023-07-13T04:28:15;101636.00;;;21.00
12918;BMP180;6526;54.312;13.092;2023-07-13T04:30:41;101642.00;;;21.10
12918;BMP180;6526;54.312;13.092;2023-07-13T04:33:08;101641.00;;;21.30
12918;BMP180;6526;54.312;13.092;2023-07-13T04:35:35;101640.00;;;21.40
12918;BMP180;6526;54.312;13.092;2023-07-13T04:38:01;101645.00;;;21.30
12918;BMP180;6526;54.312;13.092;2023-07-13T04:40:27;101634.00;;;21.20
12918;BMP180;6526;54.312;13.092;2023-07-13T04:42:54;101646.00;;;21.30
12918;BMP180;6526;54.312;13.092;2023-07-13T04:45:20;101644.00;;;21.40
12918;BMP180;6526;54.312;13.092;2023-07-13T04:47:46;101645.00;;;21.60
12918;BMP180;6526;54.312;13.092;2023-07-13T04:50:14;101645.00;;;21.60
12918;BMP180;6526;54.312;13.092;2023-07-13T04:52:44;101647.00;;;21.60
12918;BMP180;6526;54.312;13.092;2023-07-13T04:55:11;101637.00;;;21.60
12918;BMP180;6526;54.312;13.092;2023-07-13T04:57:37;101637.00;;;21.70
12918;BMP180;6526;54.312;13.092;2023-07-13T05:00:04;101630.00;;;21.80
12918;BMP180;6526;54.312;13.092;2023-07-13T05:02:32;101631.00;;;21.80
12918;BMP180;6526;54.312;13.092;2023-07-13T05:04:59;101632.00;;;21.80
12918;BMP180;6526;54.312;13.092;2023-07-13T05:07:26;101634.00;;;21.90
12918;BMP180;6526;54.312;13.092;2023-07-13T05:09:52;101655.00;;;21.90
12918;BMP180;6526;54.312;13.092;2023-07-13T05:12:18;101631.00;;;22.00
12918;BMP180;6526;54.312;13.092;2023-07-13T05:14:44;101640.00;;;22.20
12918;BMP180;6526;54.312;13.092;2023-07-13T05:17:11;101638.00;;;22.20
12918;BMP180;6526;54.312;13.092;2023-07-13T05:19:37;101645.00;;;22.20
12918;BMP180;6526;54.312;13.092;2023-07-13T05:22:03;101650.00;;;22.40
12918;BMP180;6526;54.312;13.092;2023-07-13T05:24:30;101640.00;;;22.40
12918;BMP180;6526;54.312;13.092;2023-07-13T05:26:56;101652.00;;;22.40
12918;BMP180;6526;54.312;13.092;2023-07-13T05:29:22;101657.00;;;22.50
12918;BMP180;6526;54.312;13.092;2023-07-13T05:31:49;101661.00;;;22.60
12918;BMP180;6526;54.312;13.092;2023-07-13T05:34:15;101660.00;;;22.60
12918;BMP180;6526;54.312;13.092;2023-07-13T05:36:41;101658.00;;;22.70
12918;BMP180;6526;54.312;13.092;2023-07-13T05:39:08;101652.00;;;22.80
12918;BMP180;6526;54.312;13.092;2023-07-13T05:41:35;101652.00;;;22.90
12918;BMP180;6526;54.312;13.092;2023-07-13T05:44:01;101653.00;;;23.00
12918;BMP180;6526;54.312;13.092;2023-07-13T05:46:27;101659.00;;;23.10
12918;BMP180;6526;54.312;13.092;2023-07-13T05:48:53;101661.00;;;23.20
12918;BMP180;6526;54.312;13.092;2023-07-13T05:51:19;101656.00;;;23.30
12918;BMP180;6526;54.312;13.092;2023-07-13T05:53:45;101660.00;;;23.40
12918;BMP180;6526;54.312;13.092;2023-07-13T05:56:11;101657.00;;;23.40
12918;BMP180;6526;54.312;13.092;2023-07-13T05:58:38;101661.00;;;23.50
12918;BMP180;6526;54.312;13.092;2023-07-13T06:01:06;101657.00;;;23.50
12918;BMP180;6526;54.312;13.092;2023-07-13T06:03:33;101663.00;;;23.40
12918;BMP180;6526;54.312;13.092;2023-07-13T06:05:59;101663.00;;;23.40
12918;BMP180;6526;54.312;13.092;2023-07-13T06:08:26;101661.00;;;23.50
12918;BMP180;6526;54.312;13.092;2023-07-13T06:10:53;101658.00;;;23.50
12918;BMP180;6526;54.312;13.092;2023-07-13T06:13:19;101652.00;;;23.60
12918;BMP180;6526;54.312;13.092;2023-07-13T06:15:49;101646.00;;;23.60
12918;BMP180;6526;54.312;13.092;2023-07-13T06:18:15;101642.00;;;23.70
12918;BMP180;6526;54.312;13.092;2023-07-13T06:20:41;101642.00;;;23.70
12918;BMP180;6526;54.312;13.092;2023-07-13T06:23:07;101651.00;;;23.70
12918;BMP180;6526;54.312;13.092;2023-07-13T06:25:33;101646.00;;;23.80
12918;BMP180;6526;54.312;13.092;2023-07-13T06:28:00;101649.00;;;23.80
12918;BMP180;6526;54.312;13.092;2023-07-13T06:30:26;101647.00;;;23.90
12918;BMP180;6526;54.312;13.092;2023-07-13T06:32:54;101662.00;;;24.10
12918;BMP180;6526;54.312;13.092;2023-07-13T06:35:20;101668.00;;;24.30
12918;BMP180;6526;54.312;13.092;2023-07-13T06:37:46;101663.00;;;24.40
12918;BMP180;6526;54.312;13.092;2023-07-13T06:40:13;101658.00;;;24.50
12918;BMP180;6526;54.312;13.092;2023-07-13T06:42:39;101667.00;;;24.50
12918;BMP180;6526;54.312;13.092;2023-07-13T06:45:05;101672.00;;;24.50
12918;BMP180;6526;54.312;13.092;2023-07-13T06:47:32;101666.00;;;24.60
12918;BMP180;6526;54.312;13.092;2023-07-13T06:49:58;101675.00;;;24.70
12918;BMP180;6526;54.312;13.092;2023-07-13T06:52:25;101669.00;;;24.90
12918;BMP180;6526;54.312;13.092;2023-07-13T06:54:50;101670.00;;;25.00
12918;BMP180;6526;54.312;13.092;2023-07-13T06:57:16;101672.00;;;25.10
12918;BMP180;6526;54.312;13.092;2023-07-13T06:59:42;101669.00;;;25.00
12918;BMP180;6526;54.312;13.092;2023-07-13T07:02:10;101663.00;;;25.00
12918;BMP180;6526;54.312;13.092;2023-07-13T07:04:36;101670.00;;;25.10
12918;BMP180;6526;54.312;13.092;2023-07-13T07:07:02;101663.00;;;25.40
12918;BMP180;6526;54.312;13.092;2023-07-13T07:09:28;101668.00;;;25.60
12918;BMP180;6526;54.312;13.092;2023-07-13T07:11:55;101668.00;;;25.70
12918;BMP180;6526;54.312;13.092;2023-07-13T07:14:22;101665.00;;;25.70
12918;BMP180;6526;54.312;13.092;2023-07-13T07:16:49;101674.00;;;25.70
12918;BMP180;6526;54.312;13.092;2023-07-13T07:19:15;101678.00;;;25.70
12918;BMP180;6526;54.312;13.092;2023-07-13T07:21:41;101671.00;;;25.80
12918;BMP180;6526;54.312;13.092;2023-07-13T07:24:07;101673.00;;;25.60
12918;BMP180;6526;54.312;13.092;2023-07-13T07:26:33;101672.00;;;25.80
12918;BMP180;6526;54.312;13.092;2023-07-13T07:28:59;101670.00;;;25.90
12918;BMP180;6526;54.312;13.092;2023-07-13T07:31:25;101673.00;;;26.00
12918;BMP180;6526;54.312;13.092;2023-07-13T07:33:51;101677.00;;;26.00
12918;BMP180;6526;54.312;13.092;2023-07-13T07:36:18;101680.00;;;26.10
12918;BMP180;6526;54.312;13.092;2023-07-13T07:38:44;101683.00;;;26.20
12918;BMP180;6526;54.312;13.092;2023-07-13T07:41:10;101673.00;;;26.40
12918;BMP180;6526;54.312;13.092;2023-07-13T07:43:36;101671.00;;;26.50
12918;BMP180;6526;54.312;13.092;2023-07-13T07:46:03;101668.00;;;26.20
12918;BMP180;6526;54.312;13.092;2023-07-13T07:48:29;101676.00;;;26.10
12918;BMP180;6526;54.312;13.092;2023-07-13T07:50:55;101671.00;;;26.00
12918;BMP180;6526;54.312;13.092;2023-07-13T07:53:21;101667.00;;;26.00
12918;BMP180;6526;54.312;13.092;2023-07-13T07:55:48;101658.00;;;25.90
12918;BMP180;6526;54.312;13.092;2023-07-13T07:58:14;101665.00;;;25.90
12918;BMP180;6526;54.312;13.092;2023-07-13T08:00:40;101661.00;;;25.90
12918;BMP180;6526;54.312;13.092;2023-07-13T08:03:06;101657.00;;;26.00
12918;BMP180;6526;54.312;13.092;2023-07-13T08:05:35;101660.00;;;26.20
12918;BMP180;6526;54.312;13.092;2023-07-13T08:08:02;101655.00;;;26.30
12918;BMP180;6526;54.312;13.092;2023-07-13T08:10:28;101655.00;;;26.50
12918;BMP180;6526;54.312;13.092;2023-07-13T08:12:54;101649.00;;;26.60
12918;BMP180;6526;54.312;13.092;2023-07-13T08:15:20;101647.00;;;26.70
12918;BMP180;6526;54.312;13.092;2023-07-13T08:17:47;101643.00;;;26.80
12918;BMP180;6526;54.312;13.092;2023-07-13T08:20:14;101647.00;;;26.90
12918;BMP180;6526;54.312;13.092;2023-07-13T08:22:40;101641.00;;;27.00
12918;BMP180;6526;54.312;13.092;2023-07-13T08:25:06;101643.00;;;27.10
12918;BMP180;6526;54.312;13.092;2023-07-13T08:27:33;101641.00;;;27.10
12918;BMP180;6526;54.312;13.092;2023-07-13T08:29:59;101653.00;;;27.00
12918;BMP180;6526;54.312;13.092;2023-07-13T08:32:25;101648.00;;;26.90
12918;BMP180;6526;54.312;13.092;2023-07-13T08:34:52;101645.00;;;26.90
12918;BMP180;6526;54.312;13.092;2023-07-13T08:37:18;101641.00;;;26.80
12918;BMP180;6526;54.312;13.092;2023-07-13T08:39:45;101638.00;;;26.90
12918;BMP180;6526;54.312;13.092;2023-07-13T08:42:42;101639.00;;;27.00
12918;BMP180;6526;54.312;13.092;2023-07-13T08:48:02;101638.00;;;27.30
12918;BMP180;6526;54.312;13.092;2023-07-13T08:50:33;101645.00;;;27.50
12918;BMP180;6526;54.312;13.092;2023-07-13T08:53:02;101641.00;;;27.60
12918;BMP180;6526;54.312;13.092;2023-07-13T08:55:31;101630.00;;;27.80
12918;BMP180;6526;54.312;13.092;2023-07-13T08:58:16;101637.00;;;27.80
12918;BMP180;6526;54.312;13.092;2023-07-13T09:01:03;101640.00;;;27.70
12918;BMP180;6526;54.312;13.092;2023-07-13T09:06:36;101630.00;;;27.90
12918;BMP180;6526;54.312;13.092;2023-07-13T09:12:07;101644.00;;;28.20
12918;BMP180;6526;54.312;13.092;2023-07-13T09:14:53;101640.00;;;27.90
12918;BMP180;6526;54.312;13.092;2023-07-13T09:17:29;101639.00;;;27.80
12918;BMP180;6526;54.312;13.092;2023-07-13T09:20:04;101648.00;;;27.60
12918;BMP180;6526;54.312;13.092;2023-07-13T09:22:33;101646.00;;;27.40
12918;BMP180;6526;54.312;13.092;2023-07-13T09:25:51;101651.00;;;27.10
12918;BMP180;6526;54.312;13.092;2023-07-13T09:27:53;101656.00;;;27.00
12918;BMP180;6526;54.312;13.092;2023-07-13T09:30:35;101659.00;;;26.90
12918;BMP180;6526;54.312;13.092;2023-07-13T09:33:03;101656.00;;;26.90
12918;BMP180;6526;54.312;13.092;2023-07-13T09:35:30;101651.00;;;27.20
12918;BMP180;6526;54.312;13.092;2023-07-13T09:38:14;101652.00;;;27.60
12918;BMP180;6526;54.312;13.092;2023-07-13T09:40:51;101657.00;;;27.60
12918;BMP180;6526;54.312;13.092;2023-07-13T09:43:19;101651.00;;;27.40
12918;BMP180;6526;54.312;13.092;2023-07-13T09:45:47;101653.00;;;27.20
12918;BMP180;6526;54.312;13.092;2023-07-13T09:48:15;101662.00;;;27.00
12918;BMP180;6526;54.312;13.092;2023-07-13T09:50:42;101655.00;;;26.90
12918;BMP180;6526;54.312;13.092;2023-07-13T09:53:18;101656.00;;;26.80
12918;BMP180;6526;54.312;13.092;2023-07-13T09:55:46;101666.00;;;26.90
12918;BMP180;6526;54.312;13.092;2023-07-13T09:58:16;101660.00;;;27.10
12918;BMP180;6526;54.312;13.092;2023-07-13T10:00:44;101663.00;;;27.30
12918;BMP180;6526;54.312;13.092;2023-07-13T10:03:22;101653.00;;;27.40
12918;BMP180;6526;54.312;13.092;2023-07-13T10:05:50;101653.00;;;27.50
12918;BMP180;6526;54.312;13.092;2023-07-13T10:10:53;101647.00;;;27.60
12918;BMP180;6526;54.312;13.092;2023-07-13T10:13:37;101643.00;;;27.60
12918;BMP180;6526;54.312;13.092;2023-07-13T10:16:04;101651.00;;;27.40
12918;BMP180;6526;54.312;13.092;2023-07-13T10:18:45;101658.00;;;27.40
12918;BMP180;6526;54.312;13.092;2023-07-13T10:21:20;101665.00;;;27.20
12918;BMP180;6526;54.312;13.092;2023-07-13T10:23:56;101669.00;;;27.20
12918;BMP180;6526;54.312;13.092;2023-07-13T10:26:31;101669.00;;;27.10
12918;BMP180;6526;54.312;13.092;2023-07-13T10:29:02;101666.00;;;27.00
12918;BMP180;6526;54.312;13.092;2023-07-13T10:31:31;101655.00;;;27.00
12918;BMP180;6526;54.312;13.092;2023-07-13T10:33:57;101666.00;;;26.90
12918;BMP180;6526;54.312;13.092;2023-07-13T10:36:47;101670.00;;;26.80
12918;BMP180;6526;54.312;13.092;2023-07-13T10:39:21;101666.00;;;26.90
12918;BMP180;6526;54.312;13.092;2023-07-13T10:42:01;101667.00;;;26.90
12918;BMP180;6526;54.312;13.092;2023-07-13T10:44:31;101672.00;;;26.90
12918;BMP180;6526;54.312;13.092;2023-07-13T10:47:04;101672.00;;;26.90
12918;BMP180;6526;54.312;13.092;2023-07-13T10:49:33;101683.00;;;26.80
12918;BMP180;6526;54.312;13.092;2023-07-13T10:52:01;101680.00;;;26.80
12918;BMP180;6526;54.312;13.092;2023-07-13T10:54:30;101685.00;;;26.80
12918;BMP180;6526;54.312;13.092;2023-07-13T10:57:21;101695.00;;;26.70
12918;BMP180;6526;54.312;13.092;2023-07-13T11:02:36;101695.00;;;26.50
12918;BMP180;6526;54.312;13.092;2023-07-13T11:08:02;101734.00;;;25.90
12918;BMP180;6526;54.312;13.092;2023-07-13T11:13:55;101747.00;;;25.00
12918;BMP180;6526;54.312;13.092;2023-07-13T11:18:51;101745.00;;;24.50
12918;BMP180;6526;54.312;13.092;2023-07-13T11:23:53;101764.00;;;24.20
12918;BMP180;6526;54.312;13.092;2023-07-13T11:31:59;101763.00;;;23.90
12918;BMP180;6526;54.312;13.092;2023-07-13T11:34:38;101767.00;;;23.90
12918;BMP180;6526;54.312;13.092;2023-07-13T11:37:12;101762.00;;;23.70
12918;BMP180;6526;54.312;13.092;2023-07-13T11:39:42;101776.00;;;23.70
12918;BMP180;6526;54.312;13.092;2023-07-13T11:42:13;101777.00;;;23.60
12918;BMP180;6526;54.312;13.092;2023-07-13T11:44:49;101781.00;;;23.60
12918;BMP180;6526;54.312;13.092;2023-07-13T11:47:18;101767.00;;;23.70
12918;BMP180;6526;54.312;13.092;2023-07-13T11:49:53;101768.00;;;23.80
12918;BMP180;6526;54.312;13.092;2023-07-13T11:52:35;101763.00;;;23.80
12918;BMP180;6526;54.312;13.092;2023-07-13T11:55:12;101764.00;;;24.00
12918;BMP180;6526;54.312;13.092;2023-07-13T11:57:45;101757.00;;;24.20
12918;BMP180;6526;54.312;13.092;2023-07-13T12:00:15;101757.00;;;24.50
12918;BMP180;6526;54.312;13.092;2023-07-13T12:02:51;101748.00;;;24.50
12918;BMP180;6526;54.312;13.092;2023-07-13T12:05:19;101746.00;;;24.40
12918;BMP180;6526;54.312;13.092;2023-07-13T12:07:46;101749.00;;;24.40
12918;BMP180;6526;54.312;13.092;2023-07-13T12:10:26;101744.00;;;24.50
12918;BMP180;6526;54.312;13.092;2023-07-13T12:12:58;101745.00;;;24.60
12918;BMP180;6526;54.312;13.092;2023-07-13T12:15:36;101733.00;;;24.50
12918;BMP180;6526;54.312;13.092;2023-07-13T12:18:08;101734.00;;;24.50
12918;BMP180;6526;54.312;13.092;2023-07-13T12:20:38;101688.00;;;24.50
12918;BMP180;6526;54.312;13.092;2023-07-13T12:23:33;101717.00;;;24.50
12918;BMP180;6526;54.312;13.092;2023-07-13T12:26:03;101722.00;;;24.30
12918;BMP180;6526;54.312;13.092;2023-07-13T12:28:33;101734.00;;;24.20
12918;BMP180;6526;54.312;13.092;2023-07-13T12:31:03;101734.00;;;24.30
12918;BMP180;6526;54.312;13.092;2023-07-13T12:33:31;101728.00;;;24.30
12918;BMP180;6526;54.312;13.092;2023-07-13T12:36:02;101721.00;;;24.50
12918;BMP180;6526;54.312;13.092;2023-07-13T12:38:30;101717.00;;;24.70
12918;BMP180;6526;54.312;13.092;2023-07-13T12:40:56;101712.00;;;24.90
12918;BMP180;6526;54.312;13.092;2023-07-13T12:43:24;101715.00;;;25.10
12918;BMP180;6526;54.312;13.092;2023-07-13T12:46:15;101708.00;;;25.50
12918;BMP180;6526;54.312;13.092;2023-07-13T12:48:43;101711.00;;;25.60
12918;BMP180;6526;54.312;13.092;2023-07-13T12:51:13;101718.00;;;25.70
12918;BMP180;6526;54.312;13.092;2023-07-13T12:53:48;101716.00;;;25.80
12918;BMP180;6526;54.312;13.092;2023-07-13T12:56:22;101726.00;;;25.80
12918;BMP180;6526;54.312;13.092;2023-07-13T12:58:49;101733.00;;;25.80
12918;BMP180;6526;54.312;13.092;2023-07-13T13:01:21;101754.00;;;25.70
12918;BMP180;6526;54.312;13.092;2023-07-13T13:03:50;101767.00;;;25.30
12918;BMP180;6526;54.312;13.092;2023-07-13T13:06:26;101749.00;;;24.80
12918;BMP180;6526;54.312;13.092;2023-07-13T13:08:57;101747.00;;;24.50
12918;BMP180;6526;54.312;13.092;2023-07-13T13:11:25;101726.00;;;24.10
12918;BMP180;6526;54.312;13.092;2023-07-13T13:13:52;101733.00;;;23.80
12918;BMP180;6526;54.312;13.092;2023-07-13T13:16:31;101774.00;;;23.50
12918;BMP180;6526;54.312;13.092;2023-07-13T13:19:01;101835.00;;;23.50
12918;BMP180;6526;54.312;13.092;2023-07-13T13:21:31;101823.00;;;23.30
12918;BMP180;6526;54.312;13.092;2023-07-13T13:23:58;101829.00;;;22.80
12918;BMP180;6526;54.312;13.092;2023-07-13T13:26:25;101834.00;;;22.50
12918;BMP180;6526;54.312;13.092;2023-07-13T13:28:51;101825.00;;;22.20
12918;BMP180;6526;54.312;13.092;2023-07-13T13:31:18;101813.00;;;21.90
12918;BMP180;6526;54.312;13.092;2023-07-13T13:33:45;101805.00;;;21.80
12918;BMP180;6526;54.312;13.092;2023-07-13T13:36:22;101816.00;;;21.80
12918;BMP180;6526;54.312;13.092;2023-07-13T13:38:50;101830.00;;;21.80
12918;BMP180;6526;54.312;13.092;2023-07-13T13:41:16;101823.00;;;21.80
12918;BMP180;6526;54.312;13.092;2023-07-13T13:43:43;101823.00;;;21.60
12918;BMP180;6526;54.312;13.092;2023-07-13T13:46:20;101823.00;;;21.40
12918;BMP180;6526;54.312;13.092;2023-07-13T13:48:47;101811.00;;;21.40
12918;BMP180;6526;54.312;13.092;2023-07-13T13:51:21;101804.00;;;21.40
12918;BMP180;6526;54.312;13.092;2023-07-13T13:53:49;101813.00;;;21.40
12918;BMP180;6526;54.312;13.092;2023-07-13T13:56:17;101808.00;;;21.50
12918;BMP180;6526;54.312;13.092;2023-07-13T13:58:43;101799.00;;;21.50
12918;BMP180;6526;54.312;13.092;2023-07-13T14:01:16;101798.00;;;21.40
12918;BMP180;6526;54.312;13.092;2023-07-13T14:03:44;101783.00;;;21.40
12918;BMP180;6526;54.312;13.092;2023-07-13T14:06:14;101770.00;;;21.40
12918;BMP180;6526;54.312;13.092;2023-07-13T14:08:41;101772.00;;;21.40
12918;BMP180;6526;54.312;13.092;2023-07-13T14:11:12;101772.00;;;21.40
12918;BMP180;6526;54.312;13.092;2023-07-13T14:13:47;101779.00;;;21.40
12918;BMP180;6526;54.312;13.092;2023-07-13T14:16:19;101778.00;;;21.50
12918;BMP180;6526;54.312;13.092;2023-07-13T14:18:47;101776.00;;;21.60
12918;BMP180;6526;54.312;13.092;2023-07-13T14:21:19;101778.00;;;21.60
12918;BMP180;6526;54.312;13.092;2023-07-13T14:23:47;101770.00;;;21.50
12918;BMP180;6526;54.312;13.092;2023-07-13T14:26:20;101781.00;;;21.50
12918;BMP180;6526;54.312;13.092;2023-07-13T14:28:50;101787.00;;;21.40
12918;BMP180;6526;54.312;13.092;2023-07-13T14:31:17;101782.00;;;21.40
12918;BMP180;6526;54.312;13.092;2023-07-13T14:33:44;101785.00;;;21.30
12918;BMP180;6526;54.312;13.092;2023-07-13T14:36:30;101805.00;;;21.40
12918;BMP180;6526;54.312;13.092;2023-07-13T14:38:58;101791.00;;;21.30